Santa Genoveva Airport
SBGO : now visible

Airfield :











YOU CAN JOIN US ON...

 
LOGIN :

Register | Disclaimer

   EN    FR    IT 

 









Legend :    VFR   Marginal VFR   IFR   Intensive IFR   Very Intensive IFR
Visi :
Ceiling :
>= 8 km
>= 3000ft
5 to 8 km
1000 to 3000 ft
1500m to 5 km
500 to 1000 ft
800 to 1500m
200 to 500 ft
< 800m
< 200 ft
Symbols :   Thunderstorms  Fog  Heavy snow  Heavy precipitations  Wind > 20 kt






- Airport Elevation : 2450 ft
- IATA code : GYN


SBGO - Santa Genoveva

CURRENT METAR :
  • 071000Z 33003KT 9999 FEW020 21/20 Q1017

EXPIRED METARs :
  • 070900Z 32003KT 9999 FEW045 21/20 Q1017
  • 070800Z 00000KT 9999 FEW045 22/21 Q1016

TAF TAF SBGO
Valid from the 07 at 06:00 until the 08 at 06:00 UTC


070300Z 0706/0806 09005KT CAVOK TN24/0707Z TX32/0718Z
BECMG 0716/0718 SCT030 FEW040TCU
PROB40 0718/0721 TS SCT020 FEW035CB
BECMG 0722/0724 CAVOK RMK PCZ



MET'MAP, your aeronautical weather chart ! - Copyright ORBIFLY December 2007 - Disclaimer

ORBIFLY MET'MAP TEAM :

Programming & Development : Alexandra Zaïnal
Concept & original design : Baudouin d'Aumeries
Assistance for programming : Marc-Olivier Méhu
Technical & hardware support : Manuel Goepfert

Contact : metmap@orbifly.com




SOURCES & CREDITS :

   NOAA       Earth
Advisory